sensor_id;sensor_type;location;lat;lon;timestamp;P1;durP1;ratioP1;P2;durP2;ratioP2
8252;SDS011;61313;48.396;10.008;2022-09-09T00:01:23;5.30;;;3.23;;
8252;SDS011;61313;48.396;10.008;2022-09-09T00:06:30;9.93;;;3.03;;
8252;SDS011;61313;48.396;10.008;2022-09-09T00:11:54;7.10;;;2.97;;
8252;SDS011;61313;48.396;10.008;2022-09-09T00:14:37;7.43;;;2.90;;
8252;SDS011;61313;48.396;10.008;2022-09-09T00:17:07;5.40;;;2.63;;
8252;SDS011;61313;48.396;10.008;2022-09-09T00:19:55;7.80;;;2.77;;
8252;SDS011;61313;48.396;10.008;2022-09-09T00:22:27;7.10;;;3.30;;
8252;SDS011;61313;48.396;10.008;2022-09-09T00:25:21;5.17;;;2.40;;
8252;SDS011;61313;48.396;10.008;2022-09-09T00:28:15;4.83;;;3.00;;
8252;SDS011;61313;48.396;10.008;2022-09-09T00:30:44;4.07;;;2.83;;
8252;SDS011;61313;48.396;10.008;2022-09-09T00:33:13;7.40;;;2.73;;
8252;SDS011;61313;48.396;10.008;2022-09-09T00:35:58;5.70;;;3.20;;
8252;SDS011;61313;48.396;10.008;2022-09-09T00:38:35;3.67;;;2.60;;
8252;SDS011;61313;48.396;10.008;2022-09-09T00:41:17;5.70;;;3.00;;
8252;SDS011;61313;48.396;10.008;2022-09-09T00:49:23;5.37;;;2.57;;
8252;SDS011;61313;48.396;10.008;2022-09-09T00:55:11;10.57;;;3.43;;
8252;SDS011;61313;48.396;10.008;2022-09-09T00:57:44;4.63;;;2.53;;
8252;SDS011;61313;48.396;10.008;2022-09-09T01:11:30;8.60;;;3.03;;
8252;SDS011;61313;48.396;10.008;2022-09-09T01:16:56;6.27;;;3.90;;
8252;SDS011;61313;48.396;10.008;2022-09-09T01:22:29;9.53;;;4.03;;
8252;SDS011;61313;48.396;10.008;2022-09-09T01:28:02;6.27;;;3.57;;
8252;SDS011;61313;48.396;10.008;2022-09-09T01:30:34;11.03;;;3.57;;
8252;SDS011;61313;48.396;10.008;2022-09-09T01:33:03;13.67;;;4.20;;
8252;SDS011;61313;48.396;10.008;2022-09-09T01:38:15;5.83;;;3.10;;
8252;SDS011;61313;48.396;10.008;2022-09-09T01:40:42;4.90;;;3.30;;
8252;SDS011;61313;48.396;10.008;2022-09-09T01:43:08;3.90;;;2.50;;
8252;SDS011;61313;48.396;10.008;2022-09-09T01:45:34;4.03;;;3.00;;
8252;SDS011;61313;48.396;10.008;2022-09-09T01:48:00;4.50;;;2.63;;
8252;SDS011;61313;48.396;10.008;2022-09-09T01:50:27;5.73;;;2.60;;
8252;SDS011;61313;48.396;10.008;2022-09-09T01:52:54;5.67;;;3.00;;
8252;SDS011;61313;48.396;10.008;2022-09-09T01:55:49;4.73;;;2.43;;
8252;SDS011;61313;48.396;10.008;2022-09-09T02:04:32;4.30;;;2.63;;
8252;SDS011;61313;48.396;10.008;2022-09-09T02:06:53;5.77;;;3.07;;
8252;SDS011;61313;48.396;10.008;2022-09-09T02:09:22;10.97;;;4.37;;
8252;SDS011;61313;48.396;10.008;2022-09-09T02:11:52;10.40;;;5.00;;
8252;SDS011;61313;48.396;10.008;2022-09-09T02:14:25;21.47;;;4.40;;
8252;SDS011;61313;48.396;10.008;2022-09-09T02:17:02;7.70;;;3.70;;
8252;SDS011;61313;48.396;10.008;2022-09-09T02:19:35;5.30;;;3.43;;
8252;SDS011;61313;48.396;10.008;2022-09-09T02:22:07;7.00;;;3.10;;
8252;SDS011;61313;48.396;10.008;2022-09-09T02:24:33;4.73;;;2.80;;
8252;SDS011;61313;48.396;10.008;2022-09-09T02:27:02;9.80;;;3.40;;
8252;SDS011;61313;48.396;10.008;2022-09-09T02:29:36;5.63;;;2.77;;
8252;SDS011;61313;48.396;10.008;2022-09-09T02:32:06;8.03;;;3.00;;
8252;SDS011;61313;48.396;10.008;2022-09-09T02:34:40;5.77;;;2.90;;
8252;SDS011;61313;48.396;10.008;2022-09-09T02:37:09;8.87;;;4.20;;
8252;SDS011;61313;48.396;10.008;2022-09-09T02:39:37;7.07;;;3.33;;
8252;SDS011;61313;48.396;10.008;2022-09-09T02:42:03;6.27;;;3.00;;
8252;SDS011;61313;48.396;10.008;2022-09-09T02:44:29;6.93;;;2.53;;
8252;SDS011;61313;48.396;10.008;2022-09-09T02:58:22;9.17;;;3.60;;
8252;SDS011;61313;48.396;10.008;2022-09-09T03:00:49;6.80;;;3.30;;
8252;SDS011;61313;48.396;10.008;2022-09-09T03:03:16;8.43;;;2.90;;
8252;SDS011;61313;48.396;10.008;2022-09-09T03:05:43;5.17;;;3.10;;
8252;SDS011;61313;48.396;10.008;2022-09-09T03:08:10;8.60;;;3.60;;
8252;SDS011;61313;48.396;10.008;2022-09-09T03:10:36;7.00;;;2.90;;
8252;SDS011;61313;48.396;10.008;2022-09-09T03:13:02;7.80;;;3.77;;
8252;SDS011;61313;48.396;10.008;2022-09-09T03:15:30;6.03;;;2.40;;
8252;SDS011;61313;48.396;10.008;2022-09-09T03:17:57;12.27;;;2.97;;
8252;SDS011;61313;48.396;10.008;2022-09-09T03:20:25;6.07;;;2.40;;
8252;SDS011;61313;48.396;10.008;2022-09-09T03:22:52;21.70;;;4.20;;
8252;SDS011;61313;48.396;10.008;2022-09-09T03:25:19;21.07;;;4.63;;
8252;SDS011;61313;48.396;10.008;2022-09-09T03:27:45;4.73;;;2.93;;
8252;SDS011;61313;48.396;10.008;2022-09-09T03:30:10;6.20;;;2.90;;
8252;SDS011;61313;48.396;10.008;2022-09-09T03:32:36;16.30;;;4.40;;
8252;SDS011;61313;48.396;10.008;2022-09-09T03:35:03;4.90;;;2.57;;
8252;SDS011;61313;48.396;10.008;2022-09-09T03:37:29;14.60;;;2.93;;
8252;SDS011;61313;48.396;10.008;2022-09-09T03:39:54;3.60;;;3.07;;
8252;SDS011;61313;48.396;10.008;2022-09-09T03:42:20;9.50;;;2.87;;
8252;SDS011;61313;48.396;10.008;2022-09-09T03:44:47;7.57;;;2.20;;
8252;SDS011;61313;48.396;10.008;2022-09-09T03:47:14;6.13;;;2.10;;
8252;SDS011;61313;48.396;10.008;2022-09-09T03:49:41;8.27;;;2.53;;
8252;SDS011;61313;48.396;10.008;2022-09-09T03:52:08;8.80;;;2.67;;
8252;SDS011;61313;48.396;10.008;2022-09-09T03:54:34;6.70;;;3.87;;
8252;SDS011;61313;48.396;10.008;2022-09-09T03:57:00;8.83;;;2.90;;
8252;SDS011;61313;48.396;10.008;2022-09-09T03:59:26;9.37;;;2.90;;
8252;SDS011;61313;48.396;10.008;2022-09-09T04:01:52;5.67;;;3.30;;
8252;SDS011;61313;48.396;10.008;2022-09-09T04:04:18;5.83;;;3.33;;
8252;SDS011;61313;48.396;10.008;2022-09-09T04:06:45;11.13;;;3.73;;
8252;SDS011;61313;48.396;10.008;2022-09-09T04:09:13;9.33;;;3.20;;
8252;SDS011;61313;48.396;10.008;2022-09-09T04:11:39;13.90;;;4.17;;
8252;SDS011;61313;48.396;10.008;2022-09-09T04:14:04;23.47;;;4.20;;
8252;SDS011;61313;48.396;10.008;2022-09-09T04:16:31;16.03;;;4.07;;
8252;SDS011;61313;48.396;10.008;2022-09-09T04:18:57;7.73;;;3.90;;
8252;SDS011;61313;48.396;10.008;2022-09-09T04:21:25;11.33;;;2.97;;
8252;SDS011;61313;48.396;10.008;2022-09-09T04:23:51;16.60;;;5.57;;
8252;SDS011;61313;48.396;10.008;2022-09-09T04:26:16;6.80;;;3.53;;
8252;SDS011;61313;48.396;10.008;2022-09-09T04:28:43;16.10;;;4.73;;
8252;SDS011;61313;48.396;10.008;2022-09-09T04:31:09;12.97;;;4.43;;
8252;SDS011;61313;48.396;10.008;2022-09-09T04:33:42;11.90;;;3.40;;
8252;SDS011;61313;48.396;10.008;2022-09-09T04:36:08;11.33;;;3.37;;
8252;SDS011;61313;48.396;10.008;2022-09-09T04:38:34;13.00;;;3.53;;
8252;SDS011;61313;48.396;10.008;2022-09-09T04:41:00;10.20;;;3.13;;
8252;SDS011;61313;48.396;10.008;2022-09-09T04:43:26;10.10;;;3.60;;
8252;SDS011;61313;48.396;10.008;2022-09-09T04:45:52;11.80;;;3.53;;
8252;SDS011;61313;48.396;10.008;2022-09-09T04:48:18;10.47;;;3.27;;
8252;SDS011;61313;48.396;10.008;2022-09-09T04:50:44;8.70;;;4.23;;
8252;SDS011;61313;48.396;10.008;2022-09-09T04:53:18;14.13;;;3.23;;
8252;SDS011;61313;48.396;10.008;2022-09-09T04:55:43;17.33;;;3.90;;
8252;SDS011;61313;48.396;10.008;2022-09-09T04:58:09;25.97;;;4.80;;
8252;SDS011;61313;48.396;10.008;2022-09-09T05:00:35;16.93;;;5.57;;
8252;SDS011;61313;48.396;10.008;2022-09-09T05:03:04;16.77;;;3.67;;
8252;SDS011;61313;48.396;10.008;2022-09-09T05:05:31;20.53;;;4.47;;
8252;SDS011;61313;48.396;10.008;2022-09-09T05:08:04;16.43;;;4.47;;
8252;SDS011;61313;48.396;10.008;2022-09-09T05:10:32;36.30;;;6.03;;
8252;SDS011;61313;48.396;10.008;2022-09-09T05:12:58;16.37;;;5.30;;
8252;SDS011;61313;48.396;10.008;2022-09-09T05:15:24;18.63;;;4.87;;
8252;SDS011;61313;48.396;10.008;2022-09-09T05:17:49;19.60;;;5.43;;
8252;SDS011;61313;48.396;10.008;2022-09-09T05:20:17;42.40;;;8.30;;
8252;SDS011;61313;48.396;10.008;2022-09-09T05:22:43;33.40;;;6.50;;
8252;SDS011;61313;48.396;10.008;2022-09-09T05:25:09;42.10;;;8.77;;
8252;SDS011;61313;48.396;10.008;2022-09-09T05:27:34;25.33;;;5.60;;
8252;SDS011;61313;48.396;10.008;2022-09-09T05:30:00;36.10;;;7.20;;
8252;SDS011;61313;48.396;10.008;2022-09-09T05:32:26;28.53;;;6.30;;
8252;SDS011;61313;48.396;10.008;2022-09-09T05:34:52;21.23;;;5.73;;
8252;SDS011;61313;48.396;10.008;2022-09-09T05:37:18;29.63;;;7.30;;
8252;SDS011;61313;48.396;10.008;2022-09-09T05:39:44;33.73;;;6.13;;
8252;SDS011;61313;48.396;10.008;2022-09-09T05:42:10;23.63;;;5.47;;
8252;SDS011;61313;48.396;10.008;2022-09-09T05:44:35;22.73;;;5.10;;
8252;SDS011;61313;48.396;10.008;2022-09-09T05:47:02;27.13;;;6.37;;
8252;SDS011;61313;48.396;10.008;2022-09-09T05:49:28;40.03;;;7.30;;
8252;SDS011;61313;48.396;10.008;2022-09-09T05:51:54;26.97;;;6.40;;
8252;SDS011;61313;48.396;10.008;2022-09-09T05:54:19;54.17;;;8.57;;
8252;SDS011;61313;48.396;10.008;2022-09-09T05:56:45;32.07;;;6.80;;
8252;SDS011;61313;48.396;10.008;2022-09-09T05:59:11;24.23;;;7.03;;
8252;SDS011;61313;48.396;10.008;2022-09-09T06:01:37;23.13;;;6.07;;
8252;SDS011;61313;48.396;10.008;2022-09-09T06:04:07;21.03;;;6.50;;
8252;SDS011;61313;48.396;10.008;2022-09-09T06:06:34;32.50;;;7.73;;
8252;SDS011;61313;48.396;10.008;2022-09-09T06:09:02;47.47;;;8.73;;
8252;SDS011;61313;48.396;10.008;2022-09-09T06:11:31;20.57;;;5.90;;
8252;SDS011;61313;48.396;10.008;2022-09-09T06:14:01;29.17;;;6.83;;
8252;SDS011;61313;48.396;10.008;2022-09-09T06:16:28;29.03;;;6.33;;
8252;SDS011;61313;48.396;10.008;2022-09-09T06:18:55;32.93;;;6.37;;
8252;SDS011;61313;48.396;10.008;2022-09-09T06:23:48;27.03;;;5.00;;
8252;SDS011;61313;48.396;10.008;2022-09-09T06:26:22;30.73;;;6.40;;
8252;SDS011;61313;48.396;10.008;2022-09-09T06:28:51;37.73;;;7.27;;
8252;SDS011;61313;48.396;10.008;2022-09-09T06:31:19;31.37;;;7.70;;
8252;SDS011;61313;48.396;10.008;2022-09-09T06:33:49;71.70;;;11.43;;
8252;SDS011;61313;48.396;10.008;2022-09-09T06:36:17;16.43;;;4.83;;
8252;SDS011;61313;48.396;10.008;2022-09-09T06:38:44;19.00;;;4.87;;
8252;SDS011;61313;48.396;10.008;2022-09-09T06:41:11;26.57;;;5.40;;
8252;SDS011;61313;48.396;10.008;2022-09-09T06:43:39;17.27;;;4.60;;
8252;SDS011;61313;48.396;10.008;2022-09-09T06:46:06;29.53;;;6.20;;
8252;SDS011;61313;48.396;10.008;2022-09-09T06:48:42;12.50;;;4.90;;
8252;SDS011;61313;48.396;10.008;2022-09-09T06:51:22;105.63;;;12.40;;
8252;SDS011;61313;48.396;10.008;2022-09-09T06:53:56;24.63;;;6.73;;
8252;SDS011;61313;48.396;10.008;2022-09-09T06:56:27;23.60;;;6.03;;
8252;SDS011;61313;48.396;10.008;2022-09-09T06:58:57;12.43;;;4.83;;
8252;SDS011;61313;48.396;10.008;2022-09-09T07:01:26;12.30;;;4.40;;
8252;SDS011;61313;48.396;10.008;2022-09-09T07:03:55;18.47;;;3.53;;
8252;SDS011;61313;48.396;10.008;2022-09-09T07:06:27;19.43;;;4.20;;
8252;SDS011;61313;48.396;10.008;2022-09-09T07:09:00;8.50;;;3.57;;
8252;SDS011;61313;48.396;10.008;2022-09-09T07:11:30;49.07;;;9.07;;
8252;SDS011;61313;48.396;10.008;2022-09-09T07:14:06;39.40;;;6.60;;
8252;SDS011;61313;48.396;10.008;2022-09-09T07:16:32;9.90;;;4.00;;
8252;SDS011;61313;48.396;10.008;2022-09-09T07:19:02;27.90;;;5.03;;
8252;SDS011;61313;48.396;10.008;2022-09-09T07:21:29;14.53;;;4.47;;
8252;SDS011;61313;48.396;10.008;2022-09-09T07:23:56;6.93;;;2.37;;
8252;SDS011;61313;48.396;10.008;2022-09-09T07:26:23;25.43;;;4.43;;
8252;SDS011;61313;48.396;10.008;2022-09-09T07:28:50;21.23;;;3.67;;
8252;SDS011;61313;48.396;10.008;2022-09-09T07:31:17;19.30;;;5.37;;
8252;SDS011;61313;48.396;10.008;2022-09-09T07:33:45;13.73;;;4.43;;
8252;SDS011;61313;48.396;10.008;2022-09-09T07:36:13;11.30;;;4.07;;
8252;SDS011;61313;48.396;10.008;2022-09-09T07:38:41;9.17;;;3.47;;
8252;SDS011;61313;48.396;10.008;2022-09-09T07:41:10;8.13;;;3.40;;
8252;SDS011;61313;48.396;10.008;2022-09-09T07:43:41;8.13;;;3.43;;
8252;SDS011;61313;48.396;10.008;2022-09-09T07:46:08;13.77;;;4.60;;
8252;SDS011;61313;48.396;10.008;2022-09-09T07:48:35;7.03;;;3.03;;
8252;SDS011;61313;48.396;10.008;2022-09-09T07:51:05;5.90;;;3.07;;
8252;SDS011;61313;48.396;10.008;2022-09-09T07:53:44;81.60;;;9.87;;
8252;SDS011;61313;48.396;10.008;2022-09-09T07:56:12;20.73;;;4.47;;
8252;SDS011;61313;48.396;10.008;2022-09-09T07:58:39;10.50;;;3.10;;
8252;SDS011;61313;48.396;10.008;2022-09-09T08:01:15;4.97;;;2.80;;
8252;SDS011;61313;48.396;10.008;2022-09-09T08:03:44;24.47;;;4.70;;
8252;SDS011;61313;48.396;10.008;2022-09-09T08:06:11;39.93;;;6.23;;
8252;SDS011;61313;48.396;10.008;2022-09-09T08:08:38;26.33;;;5.50;;
8252;SDS011;61313;48.396;10.008;2022-09-09T08:11:10;48.67;;;8.43;;
8252;SDS011;61313;48.396;10.008;2022-09-09T08:13:39;24.77;;;4.93;;
8252;SDS011;61313;48.396;10.008;2022-09-09T08:16:27;7.57;;;3.10;;
8252;SDS011;61313;48.396;10.008;2022-09-09T08:18:53;8.93;;;3.00;;
8252;SDS011;61313;48.396;10.008;2022-09-09T08:21:24;11.20;;;3.30;;
8252;SDS011;61313;48.396;10.008;2022-09-09T08:23:53;9.60;;;2.97;;
8252;SDS011;61313;48.396;10.008;2022-09-09T08:26:24;8.93;;;2.70;;
8252;SDS011;61313;48.396;10.008;2022-09-09T08:28:53;9.50;;;3.17;;
8252;SDS011;61313;48.396;10.008;2022-09-09T08:31:43;6.50;;;2.97;;
8252;SDS011;61313;48.396;10.008;2022-09-09T08:34:10;11.07;;;4.00;;
8252;SDS011;61313;48.396;10.008;2022-09-09T08:36:37;12.60;;;3.80;;
8252;SDS011;61313;48.396;10.008;2022-09-09T08:39:05;6.93;;;2.80;;
8252;SDS011;61313;48.396;10.008;2022-09-09T08:52:25;3.57;;;2.43;;
8252;SDS011;61313;48.396;10.008;2022-09-09T08:54:52;9.63;;;2.73;;
8252;SDS011;61313;48.396;10.008;2022-09-09T08:57:40;12.50;;;3.27;;
8252;SDS011;61313;48.396;10.008;2022-09-09T09:00:08;11.13;;;2.47;;
8252;SDS011;61313;48.396;10.008;2022-09-09T09:02:47;15.23;;;3.40;;
8252;SDS011;61313;48.396;10.008;2022-09-09T09:07:58;12.57;;;3.00;;
8252;SDS011;61313;48.396;10.008;2022-09-09T09:16:11;18.70;;;4.33;;
8252;SDS011;61313;48.396;10.008;2022-09-09T09:18:47;20.37;;;3.30;;
8252;SDS011;61313;48.396;10.008;2022-09-09T09:21:17;9.20;;;3.03;;
8252;SDS011;61313;48.396;10.008;2022-09-09T09:26:46;19.17;;;3.83;;
8252;SDS011;61313;48.396;10.008;2022-09-09T09:29:16;8.23;;;2.97;;
8252;SDS011;61313;48.396;10.008;2022-09-09T09:31:48;17.53;;;3.40;;
8252;SDS011;61313;48.396;10.008;2022-09-09T09:34:17;13.80;;;3.30;;
8252;SDS011;61313;48.396;10.008;2022-09-09T09:36:43;16.30;;;3.40;;
8252;SDS011;61313;48.396;10.008;2022-09-09T09:41:52;8.53;;;2.47;;
8252;SDS011;61313;48.396;10.008;2022-09-09T09:44:29;4.67;;;2.23;;
8252;SDS011;61313;48.396;10.008;2022-09-09T09:49:31;18.90;;;2.90;;
8252;SDS011;61313;48.396;10.008;2022-09-09T09:52:01;14.53;;;3.17;;
8252;SDS011;61313;48.396;10.008;2022-09-09T09:54:29;8.77;;;2.90;;
8252;SDS011;61313;48.396;10.008;2022-09-09T09:57:09;18.97;;;2.40;;
8252;SDS011;61313;48.396;10.008;2022-09-09T09:59:35;12.83;;;2.43;;
8252;SDS011;61313;48.396;10.008;2022-09-09T10:02:13;7.33;;;2.50;;
8252;SDS011;61313;48.396;10.008;2022-09-09T10:04:39;9.97;;;2.17;;
8252;SDS011;61313;48.396;10.008;2022-09-09T10:07:39;9.27;;;2.47;;
8252;SDS011;61313;48.396;10.008;2022-09-09T10:09:59;12.50;;;3.00;;
8252;SDS011;61313;48.396;10.008;2022-09-09T10:12:43;10.97;;;2.43;;
8252;SDS011;61313;48.396;10.008;2022-09-09T10:18:06;4.43;;;2.40;;
8252;SDS011;61313;48.396;10.008;2022-09-09T10:21:09;24.50;;;4.00;;
8252;SDS011;61313;48.396;10.008;2022-09-09T10:26:51;15.30;;;2.60;;
8252;SDS011;61313;48.396;10.008;2022-09-09T10:37:30;15.37;;;2.53;;
8252;SDS011;61313;48.396;10.008;2022-09-09T10:42:37;10.23;;;3.50;;
8252;SDS011;61313;48.396;10.008;2022-09-09T10:50:28;13.70;;;2.63;;
8252;SDS011;61313;48.396;10.008;2022-09-09T10:55:51;23.90;;;4.80;;
8252;SDS011;61313;48.396;10.008;2022-09-09T10:58:32;19.50;;;3.77;;
8252;SDS011;61313;48.396;10.008;2022-09-09T11:01:11;13.67;;;3.00;;
8252;SDS011;61313;48.396;10.008;2022-09-09T11:03:41;13.20;;;2.23;;
8252;SDS011;61313;48.396;10.008;2022-09-09T11:06:15;13.53;;;2.40;;
8252;SDS011;61313;48.396;10.008;2022-09-09T11:08:44;4.50;;;2.10;;
8252;SDS011;61313;48.396;10.008;2022-09-09T11:18:50;12.07;;;2.93;;
8252;SDS011;61313;48.396;10.008;2022-09-09T11:21:26;7.70;;;2.13;;
8252;SDS011;61313;48.396;10.008;2022-09-09T11:24:44;10.10;;;2.70;;
8252;SDS011;61313;48.396;10.008;2022-09-09T11:27:10;9.90;;;2.53;;
8252;SDS011;61313;48.396;10.008;2022-09-09T11:32:47;6.80;;;1.73;;
8252;SDS011;61313;48.396;10.008;2022-09-09T11:38:14;14.33;;;2.23;;
8252;SDS011;61313;48.396;10.008;2022-09-09T11:41:02;27.17;;;4.13;;
8252;SDS011;61313;48.396;10.008;2022-09-09T11:43:44;10.43;;;1.80;;
8252;SDS011;61313;48.396;10.008;2022-09-09T11:46:19;7.30;;;1.50;;
8252;SDS011;61313;48.396;10.008;2022-09-09T11:48:58;7.87;;;1.80;;
8252;SDS011;61313;48.396;10.008;2022-09-09T11:51:30;5.83;;;1.60;;
8252;SDS011;61313;48.396;10.008;2022-09-09T11:59:01;5.43;;;1.83;;
8252;SDS011;61313;48.396;10.008;2022-09-09T12:01:34;17.80;;;2.33;;
8252;SDS011;61313;48.396;10.008;2022-09-09T12:06:41;8.80;;;1.57;;
8252;SDS011;61313;48.396;10.008;2022-09-09T12:09:29;8.27;;;1.93;;
8252;SDS011;61313;48.396;10.008;2022-09-09T12:19:41;4.83;;;1.57;;
8252;SDS011;61313;48.396;10.008;2022-09-09T12:22:24;3.20;;;1.40;;
8252;SDS011;61313;48.396;10.008;2022-09-09T12:28:08;15.13;;;3.13;;
8252;SDS011;61313;48.396;10.008;2022-09-09T12:30:47;10.00;;;2.27;;
8252;SDS011;61313;48.396;10.008;2022-09-09T12:33:23;8.30;;;1.50;;
8252;SDS011;61313;48.396;10.008;2022-09-09T12:35:58;11.93;;;2.40;;
8252;SDS011;61313;48.396;10.008;2022-09-09T12:40:59;19.07;;;2.60;;
8252;SDS011;61313;48.396;10.008;2022-09-09T12:43:25;8.13;;;2.60;;
8252;SDS011;61313;48.396;10.008;2022-09-09T12:46:03;6.00;;;1.57;;
8252;SDS011;61313;48.396;10.008;2022-09-09T12:51:05;6.70;;;1.63;;
8252;SDS011;61313;48.396;10.008;2022-09-09T12:53:40;26.80;;;3.50;;
8252;SDS011;61313;48.396;10.008;2022-09-09T12:56:07;4.47;;;1.23;;
8252;SDS011;61313;48.396;10.008;2022-09-09T12:58:44;11.73;;;1.47;;
8252;SDS011;61313;48.396;10.008;2022-09-09T13:01:18;6.13;;;1.30;;
8252;SDS011;61313;48.396;10.008;2022-09-09T13:03:47;4.67;;;1.67;;
8252;SDS011;61313;48.396;10.008;2022-09-09T13:06:18;6.13;;;1.77;;
8252;SDS011;61313;48.396;10.008;2022-09-09T13:08:50;8.63;;;2.23;;
8252;SDS011;61313;48.396;10.008;2022-09-09T13:11:18;5.20;;;1.43;;
8252;SDS011;61313;48.396;10.008;2022-09-09T13:13:54;25.77;;;3.23;;
8252;SDS011;61313;48.396;10.008;2022-09-09T13:18:56;12.13;;;2.37;;
8252;SDS011;61313;48.396;10.008;2022-09-09T13:21:37;10.77;;;1.90;;
8252;SDS011;61313;48.396;10.008;2022-09-09T13:24:04;9.67;;;1.57;;
8252;SDS011;61313;48.396;10.008;2022-09-09T13:26:32;19.40;;;2.77;;
8252;SDS011;61313;48.396;10.008;2022-09-09T13:32:03;6.10;;;2.67;;
8252;SDS011;61313;48.396;10.008;2022-09-09T13:34:50;6.87;;;1.70;;
8252;SDS011;61313;48.396;10.008;2022-09-09T13:37:24;7.53;;;2.30;;
8252;SDS011;61313;48.396;10.008;2022-09-09T13:39:54;13.33;;;2.93;;
8252;SDS011;61313;48.396;10.008;2022-09-09T13:42:25;12.10;;;2.70;;
8252;SDS011;61313;48.396;10.008;2022-09-09T13:44:52;10.90;;;2.20;;
8252;SDS011;61313;48.396;10.008;2022-09-09T13:47:21;5.30;;;1.40;;
8252;SDS011;61313;48.396;10.008;2022-09-09T13:49:52;23.87;;;2.57;;
8252;SDS011;61313;48.396;10.008;2022-09-09T13:52:19;14.70;;;2.40;;
8252;SDS011;61313;48.396;10.008;2022-09-09T13:54:48;31.93;;;4.47;;
8252;SDS011;61313;48.396;10.008;2022-09-09T13:57:22;12.80;;;2.60;;
8252;SDS011;61313;48.396;10.008;2022-09-09T13:59:50;3.60;;;1.93;;
8252;SDS011;61313;48.396;10.008;2022-09-09T14:02:17;8.80;;;2.43;;
8252;SDS011;61313;48.396;10.008;2022-09-09T14:04:43;11.27;;;2.40;;
8252;SDS011;61313;48.396;10.008;2022-09-09T14:07:16;8.13;;;2.53;;
8252;SDS011;61313;48.396;10.008;2022-09-09T14:09:43;5.53;;;1.70;;
8252;SDS011;61313;48.396;10.008;2022-09-09T14:12:11;12.87;;;2.20;;
8252;SDS011;61313;48.396;10.008;2022-09-09T14:14:38;5.97;;;1.50;;
8252;SDS011;61313;48.396;10.008;2022-09-09T14:17:04;12.73;;;2.10;;
8252;SDS011;61313;48.396;10.008;2022-09-09T14:19:30;14.03;;;2.00;;
8252;SDS011;61313;48.396;10.008;2022-09-09T14:21:57;13.73;;;2.03;;
8252;SDS011;61313;48.396;10.008;2022-09-09T14:24:23;6.10;;;1.80;;
8252;SDS011;61313;48.396;10.008;2022-09-09T14:26:48;8.87;;;2.87;;
8252;SDS011;61313;48.396;10.008;2022-09-09T14:29:14;11.70;;;2.00;;
8252;SDS011;61313;48.396;10.008;2022-09-09T14:31:40;5.57;;;3.03;;
8252;SDS011;61313;48.396;10.008;2022-09-09T14:34:05;11.00;;;2.37;;
8252;SDS011;61313;48.396;10.008;2022-09-09T14:36:31;16.60;;;2.63;;
8252;SDS011;61313;48.396;10.008;2022-09-09T14:38:57;22.37;;;3.17;;
8252;SDS011;61313;48.396;10.008;2022-09-09T14:41:23;11.47;;;3.07;;
8252;SDS011;61313;48.396;10.008;2022-09-09T14:43:50;9.83;;;2.43;;
8252;SDS011;61313;48.396;10.008;2022-09-09T14:46:17;8.13;;;2.60;;
8252;SDS011;61313;48.396;10.008;2022-09-09T14:48:44;11.33;;;2.60;;
8252;SDS011;61313;48.396;10.008;2022-09-09T14:51:22;17.53;;;2.93;;
8252;SDS011;61313;48.396;10.008;2022-09-09T14:53:51;9.07;;;2.07;;
8252;SDS011;61313;48.396;10.008;2022-09-09T14:56:19;8.63;;;1.90;;
8252;SDS011;61313;48.396;10.008;2022-09-09T14:58:47;15.03;;;2.97;;
8252;SDS011;61313;48.396;10.008;2022-09-09T15:01:17;21.57;;;2.90;;
8252;SDS011;61313;48.396;10.008;2022-09-09T15:03:51;6.47;;;2.10;;
8252;SDS011;61313;48.396;10.008;2022-09-09T15:06:19;6.30;;;1.93;;
8252;SDS011;61313;48.396;10.008;2022-09-09T15:08:46;5.27;;;1.50;;
8252;SDS011;61313;48.396;10.008;2022-09-09T15:11:13;27.47;;;4.00;;
8252;SDS011;61313;48.396;10.008;2022-09-09T15:13:40;101.07;;;13.57;;
8252;SDS011;61313;48.396;10.008;2022-09-09T15:16:08;17.17;;;3.03;;
8252;SDS011;61313;48.396;10.008;2022-09-09T15:18:38;30.60;;;3.93;;
8252;SDS011;61313;48.396;10.008;2022-09-09T15:21:15;28.23;;;3.70;;
8252;SDS011;61313;48.396;10.008;2022-09-09T15:23:43;15.30;;;2.80;;
8252;SDS011;61313;48.396;10.008;2022-09-09T15:26:10;16.30;;;2.60;;
8252;SDS011;61313;48.396;10.008;2022-09-09T15:28:37;15.70;;;3.23;;
8252;SDS011;61313;48.396;10.008;2022-09-09T15:33:35;16.67;;;2.30;;
8252;SDS011;61313;48.396;10.008;2022-09-09T15:36:13;8.80;;;2.00;;
8252;SDS011;61313;48.396;10.008;2022-09-09T15:38:42;14.33;;;3.07;;
8252;SDS011;61313;48.396;10.008;2022-09-09T15:41:09;7.63;;;2.20;;
8252;SDS011;61313;48.396;10.008;2022-09-09T15:43:35;10.20;;;2.40;;
8252;SDS011;61313;48.396;10.008;2022-09-09T15:46:05;6.83;;;2.57;;
8252;SDS011;61313;48.396;10.008;2022-09-09T15:49:05;10.30;;;2.43;;
8252;SDS011;61313;48.396;10.008;2022-09-09T15:51:34;25.60;;;2.80;;
8252;SDS011;61313;48.396;10.008;2022-09-09T15:54:00;14.30;;;2.40;;
8252;SDS011;61313;48.396;10.008;2022-09-09T15:56:27;6.90;;;1.90;;
8252;SDS011;61313;48.396;10.008;2022-09-09T15:58:56;3.53;;;1.77;;
8252;SDS011;61313;48.396;10.008;2022-09-09T16:01:22;13.77;;;1.63;;
8252;SDS011;61313;48.396;10.008;2022-09-09T16:03:49;4.80;;;1.50;;
8252;SDS011;61313;48.396;10.008;2022-09-09T16:06:19;3.00;;;1.30;;
8252;SDS011;61313;48.396;10.008;2022-09-09T16:08:47;4.80;;;1.47;;
8252;SDS011;61313;48.396;10.008;2022-09-09T16:11:18;3.87;;;1.40;;
8252;SDS011;61313;48.396;10.008;2022-09-09T16:13:47;4.40;;;1.20;;
8252;SDS011;61313;48.396;10.008;2022-09-09T16:16:14;4.10;;;1.13;;
8252;SDS011;61313;48.396;10.008;2022-09-09T16:18:42;10.53;;;1.77;;
8252;SDS011;61313;48.396;10.008;2022-09-09T16:21:17;8.83;;;1.87;;
8252;SDS011;61313;48.396;10.008;2022-09-09T16:23:45;12.00;;;2.10;;
8252;SDS011;61313;48.396;10.008;2022-09-09T16:26:11;9.50;;;1.40;;
8252;SDS011;61313;48.396;10.008;2022-09-09T16:28:39;6.43;;;2.00;;
8252;SDS011;61313;48.396;10.008;2022-09-09T16:31:06;7.43;;;1.60;;
8252;SDS011;61313;48.396;10.008;2022-09-09T16:33:32;3.77;;;1.53;;
8252;SDS011;61313;48.396;10.008;2022-09-09T16:36:04;11.40;;;3.60;;
8252;SDS011;61313;48.396;10.008;2022-09-09T16:38:37;9.93;;;2.47;;
8252;SDS011;61313;48.396;10.008;2022-09-09T16:41:04;7.53;;;2.00;;
8252;SDS011;61313;48.396;10.008;2022-09-09T16:43:34;8.80;;;2.23;;
8252;SDS011;61313;48.396;10.008;2022-09-09T16:46:09;5.43;;;1.87;;
8252;SDS011;61313;48.396;10.008;2022-09-09T16:48:41;3.33;;;1.47;;
8252;SDS011;61313;48.396;10.008;2022-09-09T16:51:11;4.27;;;1.50;;
8252;SDS011;61313;48.396;10.008;2022-09-09T16:53:39;17.87;;;2.77;;
8252;SDS011;61313;48.396;10.008;2022-09-09T16:56:08;9.30;;;2.60;;
8252;SDS011;61313;48.396;10.008;2022-09-09T16:58:35;11.17;;;2.30;;
8252;SDS011;61313;48.396;10.008;2022-09-09T17:01:02;23.63;;;3.40;;
8252;SDS011;61313;48.396;10.008;2022-09-09T17:03:28;12.87;;;2.10;;
8252;SDS011;61313;48.396;10.008;2022-09-09T17:05:54;8.70;;;2.30;;
8252;SDS011;61313;48.396;10.008;2022-09-09T17:08:20;24.30;;;2.77;;
8252;SDS011;61313;48.396;10.008;2022-09-09T17:10:45;69.23;;;6.13;;
8252;SDS011;61313;48.396;10.008;2022-09-09T17:13:12;36.20;;;4.27;;
8252;SDS011;61313;48.396;10.008;2022-09-09T17:15:41;38.93;;;5.57;;
8252;SDS011;61313;48.396;10.008;2022-09-09T17:18:08;4.77;;;1.73;;
8252;SDS011;61313;48.396;10.008;2022-09-09T17:20:37;14.77;;;2.27;;
8252;SDS011;61313;48.396;10.008;2022-09-09T17:23:06;21.80;;;3.20;;
8252;SDS011;61313;48.396;10.008;2022-09-09T17:25:34;30.43;;;3.03;;
8252;SDS011;61313;48.396;10.008;2022-09-09T17:28:00;32.80;;;4.97;;
8252;SDS011;61313;48.396;10.008;2022-09-09T17:30:29;23.03;;;3.70;;
8252;SDS011;61313;48.396;10.008;2022-09-09T17:32:58;25.83;;;3.23;;